sensor_id;sensor_type;location;lat;lon;timestamp;P1;durP1;ratioP1;P2;durP2;ratioP2
31730;SDS011;18310;55.586;12.286;2023-07-29T00:02:39;4.25;;;2.67;;
31730;SDS011;18310;55.586;12.286;2023-07-29T00:05:42;3.47;;;2.20;;
31730;SDS011;18310;55.586;12.286;2023-07-29T00:08:45;4.38;;;2.40;;
31730;SDS011;18310;55.586;12.286;2023-07-29T00:11:50;4.65;;;2.33;;
31730;SDS011;18310;55.586;12.286;2023-07-29T00:14:57;5.28;;;2.70;;
31730;SDS011;18310;55.586;12.286;2023-07-29T00:18:00;3.78;;;2.20;;
31730;SDS011;18310;55.586;12.286;2023-07-29T00:21:04;3.45;;;2.17;;
31730;SDS011;18310;55.586;12.286;2023-07-29T00:24:07;5.50;;;2.63;;
31730;SDS011;18310;55.586;12.286;2023-07-29T00:27:11;4.10;;;2.47;;
31730;SDS011;18310;55.586;12.286;2023-07-29T00:30:14;4.72;;;2.65;;
31730;SDS011;18310;55.586;12.286;2023-07-29T00:33:17;7.63;;;2.33;;
31730;SDS011;18310;55.586;12.286;2023-07-29T00:36:21;7.25;;;2.85;;
31730;SDS011;18310;55.586;12.286;2023-07-29T00:39:25;8.98;;;2.40;;
31730;SDS011;18310;55.586;12.286;2023-07-29T00:42:29;5.50;;;2.85;;
31730;SDS011;18310;55.586;12.286;2023-07-29T00:45:32;4.90;;;2.55;;
31730;SDS011;18310;55.586;12.286;2023-07-29T00:48:36;4.35;;;2.47;;
31730;SDS011;18310;55.586;12.286;2023-07-29T00:51:40;4.72;;;2.70;;
31730;SDS011;18310;55.586;12.286;2023-07-29T00:54:43;5.35;;;2.30;;
31730;SDS011;18310;55.586;12.286;2023-07-29T00:57:47;4.18;;;2.80;;
31730;SDS011;18310;55.586;12.286;2023-07-29T01:00:53;6.00;;;2.75;;
31730;SDS011;18310;55.586;12.286;2023-07-29T01:07:03;5.72;;;2.70;;
31730;SDS011;18310;55.586;12.286;2023-07-29T01:10:18;5.32;;;2.50;;
31730;SDS011;18310;55.586;12.286;2023-07-29T01:13:29;3.60;;;2.22;;
31730;SDS011;18310;55.586;12.286;2023-07-29T01:16:39;6.07;;;2.88;;
31730;SDS011;18310;55.586;12.286;2023-07-29T01:19:48;4.30;;;2.47;;
31730;SDS011;18310;55.586;12.286;2023-07-29T01:23:01;4.15;;;2.22;;
31730;SDS011;18310;55.586;12.286;2023-07-29T01:26:05;4.30;;;2.50;;
31730;SDS011;18310;55.586;12.286;2023-07-29T01:29:08;6.68;;;2.97;;
31730;SDS011;18310;55.586;12.286;2023-07-29T01:32:13;8.15;;;3.03;;
31730;SDS011;18310;55.586;12.286;2023-07-29T01:35:21;4.75;;;2.58;;
31730;SDS011;18310;55.586;12.286;2023-07-29T01:38:30;3.72;;;2.40;;
31730;SDS011;18310;55.586;12.286;2023-07-29T01:41:37;4.15;;;1.92;;
31730;SDS011;18310;55.586;12.286;2023-07-29T01:44:42;7.80;;;2.20;;
31730;SDS011;18310;55.586;12.286;2023-07-29T01:47:45;3.93;;;2.20;;
31730;SDS011;18310;55.586;12.286;2023-07-29T01:50:49;6.83;;;2.43;;
31730;SDS011;18310;55.586;12.286;2023-07-29T01:53:52;5.20;;;2.50;;
31730;SDS011;18310;55.586;12.286;2023-07-29T01:56:58;4.38;;;2.30;;
31730;SDS011;18310;55.586;12.286;2023-07-29T02:00:01;3.72;;;2.20;;
31730;SDS011;18310;55.586;12.286;2023-07-29T02:03:05;3.53;;;2.08;;
31730;SDS011;18310;55.586;12.286;2023-07-29T02:06:38;3.60;;;2.03;;
31730;SDS011;18310;55.586;12.286;2023-07-29T02:09:42;4.20;;;2.47;;
31730;SDS011;18310;55.586;12.286;2023-07-29T02:12:45;4.07;;;2.30;;
31730;SDS011;18310;55.586;12.286;2023-07-29T02:15:48;4.03;;;2.47;;
31730;SDS011;18310;55.586;12.286;2023-07-29T02:18:51;9.68;;;2.72;;
31730;SDS011;18310;55.586;12.286;2023-07-29T02:21:58;5.07;;;2.92;;
31730;SDS011;18310;55.586;12.286;2023-07-29T02:25:02;4.80;;;2.72;;
31730;SDS011;18310;55.586;12.286;2023-07-29T02:28:05;7.20;;;2.90;;
31730;SDS011;18310;55.586;12.286;2023-07-29T02:31:09;4.83;;;2.43;;
31730;SDS011;18310;55.586;12.286;2023-07-29T02:34:15;4.25;;;2.22;;
31730;SDS011;18310;55.586;12.286;2023-07-29T02:37:19;5.93;;;2.80;;
31730;SDS011;18310;55.586;12.286;2023-07-29T02:40:22;4.78;;;2.83;;
31730;SDS011;18310;55.586;12.286;2023-07-29T02:43:28;4.28;;;2.47;;
31730;SDS011;18310;55.586;12.286;2023-07-29T02:46:31;5.53;;;3.10;;
31730;SDS011;18310;55.586;12.286;2023-07-29T02:49:34;7.10;;;2.85;;
31730;SDS011;18310;55.586;12.286;2023-07-29T02:52:39;8.63;;;3.57;;
31730;SDS011;18310;55.586;12.286;2023-07-29T02:55:42;5.50;;;3.33;;
31730;SDS011;18310;55.586;12.286;2023-07-29T02:58:45;5.03;;;2.85;;
31730;SDS011;18310;55.586;12.286;2023-07-29T03:01:48;5.30;;;2.70;;
31730;SDS011;18310;55.586;12.286;2023-07-29T03:04:51;4.85;;;3.10;;
31730;SDS011;18310;55.586;12.286;2023-07-29T03:07:57;4.57;;;2.22;;
31730;SDS011;18310;55.586;12.286;2023-07-29T03:11:04;5.68;;;2.17;;
31730;SDS011;18310;55.586;12.286;2023-07-29T03:14:08;5.10;;;2.58;;
31730;SDS011;18310;55.586;12.286;2023-07-29T03:17:12;3.60;;;2.33;;
31730;SDS011;18310;55.586;12.286;2023-07-29T03:20:38;5.93;;;2.67;;
31730;SDS011;18310;55.586;12.286;2023-07-29T03:23:42;4.75;;;2.47;;
31730;SDS011;18310;55.586;12.286;2023-07-29T03:26:45;4.88;;;2.25;;
31730;SDS011;18310;55.586;12.286;2023-07-29T03:29:48;4.50;;;2.30;;
31730;SDS011;18310;55.586;12.286;2023-07-29T03:32:51;5.85;;;2.63;;
31730;SDS011;18310;55.586;12.286;2023-07-29T03:35:56;5.03;;;2.53;;
31730;SDS011;18310;55.586;12.286;2023-07-29T03:39:00;4.53;;;2.13;;
31730;SDS011;18310;55.586;12.286;2023-07-29T03:42:05;7.88;;;2.22;;
31730;SDS011;18310;55.586;12.286;2023-07-29T03:45:09;6.43;;;2.27;;
31730;SDS011;18310;55.586;12.286;2023-07-29T03:51:17;4.07;;;2.13;;
31730;SDS011;18310;55.586;12.286;2023-07-29T03:54:20;3.28;;;2.03;;
31730;SDS011;18310;55.586;12.286;2023-07-29T03:57:24;5.60;;;2.43;;
31730;SDS011;18310;55.586;12.286;2023-07-29T04:00:27;4.00;;;2.05;;
31730;SDS011;18310;55.586;12.286;2023-07-29T04:03:30;4.43;;;2.40;;
31730;SDS011;18310;55.586;12.286;2023-07-29T04:06:35;6.33;;;2.67;;
31730;SDS011;18310;55.586;12.286;2023-07-29T04:09:38;5.15;;;2.45;;
31730;SDS011;18310;55.586;12.286;2023-07-29T04:12:42;4.65;;;3.15;;
31730;SDS011;18310;55.586;12.286;2023-07-29T04:15:46;4.55;;;2.80;;
31730;SDS011;18310;55.586;12.286;2023-07-29T04:18:49;4.40;;;2.70;;
31730;SDS011;18310;55.586;12.286;2023-07-29T04:21:54;7.20;;;3.20;;
31730;SDS011;18310;55.586;12.286;2023-07-29T04:24:58;6.35;;;3.25;;
31730;SDS011;18310;55.586;12.286;2023-07-29T04:28:01;6.95;;;3.28;;
31730;SDS011;18310;55.586;12.286;2023-07-29T04:31:05;6.72;;;3.22;;
31730;SDS011;18310;55.586;12.286;2023-07-29T04:34:08;5.10;;;3.15;;
31730;SDS011;18310;55.586;12.286;2023-07-29T04:37:13;6.53;;;3.50;;
31730;SDS011;18310;55.586;12.286;2023-07-29T04:40:16;6.90;;;3.50;;
31730;SDS011;18310;55.586;12.286;2023-07-29T04:43:19;5.38;;;3.10;;
31730;SDS011;18310;55.586;12.286;2023-07-29T04:46:22;6.45;;;3.20;;
31730;SDS011;18310;55.586;12.286;2023-07-29T04:49:25;8.07;;;4.13;;
31730;SDS011;18310;55.586;12.286;2023-07-29T04:52:30;5.70;;;3.20;;
31730;SDS011;18310;55.586;12.286;2023-07-29T04:55:33;5.88;;;3.10;;
31730;SDS011;18310;55.586;12.286;2023-07-29T04:58:36;5.65;;;3.10;;
31730;SDS011;18310;55.586;12.286;2023-07-29T05:01:39;6.20;;;2.95;;
31730;SDS011;18310;55.586;12.286;2023-07-29T05:04:45;4.55;;;2.67;;
31730;SDS011;18310;55.586;12.286;2023-07-29T05:07:49;6.63;;;3.05;;
31730;SDS011;18310;55.586;12.286;2023-07-29T05:10:53;4.75;;;2.97;;
31730;SDS011;18310;55.586;12.286;2023-07-29T05:13:56;6.30;;;3.03;;
31730;SDS011;18310;55.586;12.286;2023-07-29T05:16:59;4.85;;;3.60;;
31730;SDS011;18310;55.586;12.286;2023-07-29T05:20:02;5.70;;;3.17;;
31730;SDS011;18310;55.586;12.286;2023-07-29T05:23:07;5.28;;;3.30;;
31730;SDS011;18310;55.586;12.286;2023-07-29T05:26:11;6.25;;;3.03;;
31730;SDS011;18310;55.586;12.286;2023-07-29T05:29:14;7.70;;;3.35;;
31730;SDS011;18310;55.586;12.286;2023-07-29T05:32:17;4.57;;;3.10;;
31730;SDS011;18310;55.586;12.286;2023-07-29T05:35:20;6.60;;;3.30;;
31730;SDS011;18310;55.586;12.286;2023-07-29T05:38:25;5.57;;;3.20;;
31730;SDS011;18310;55.586;12.286;2023-07-29T05:41:28;6.00;;;3.10;;
31730;SDS011;18310;55.586;12.286;2023-07-29T05:44:31;5.57;;;2.97;;
31730;SDS011;18310;55.586;12.286;2023-07-29T05:47:34;4.67;;;2.73;;
31730;SDS011;18310;55.586;12.286;2023-07-29T05:50:38;5.03;;;2.70;;
31730;SDS011;18310;55.586;12.286;2023-07-29T05:53:42;11.00;;;3.13;;
31730;SDS011;18310;55.586;12.286;2023-07-29T05:56:46;3.75;;;2.72;;
31730;SDS011;18310;55.586;12.286;2023-07-29T05:59:49;8.18;;;2.58;;
31730;SDS011;18310;55.586;12.286;2023-07-29T06:02:53;6.07;;;3.30;;
31730;SDS011;18310;55.586;12.286;2023-07-29T06:05:56;5.03;;;2.65;;
31730;SDS011;18310;55.586;12.286;2023-07-29T06:09:01;5.40;;;2.73;;
31730;SDS011;18310;55.586;12.286;2023-07-29T06:12:04;4.63;;;2.70;;
31730;SDS011;18310;55.586;12.286;2023-07-29T06:15:08;5.03;;;2.72;;
31730;SDS011;18310;55.586;12.286;2023-07-29T06:21:15;3.88;;;2.60;;
31730;SDS011;18310;55.586;12.286;2023-07-29T06:24:22;3.35;;;2.50;;
31730;SDS011;18310;55.586;12.286;2023-07-29T06:27:26;3.50;;;2.15;;
31730;SDS011;18310;55.586;12.286;2023-07-29T06:30:29;3.30;;;2.42;;
31730;SDS011;18310;55.586;12.286;2023-07-29T06:33:33;12.30;;;2.95;;
31730;SDS011;18310;55.586;12.286;2023-07-29T06:36:36;6.00;;;3.00;;
31730;SDS011;18310;55.586;12.286;2023-07-29T06:39:41;5.65;;;3.47;;
31730;SDS011;18310;55.586;12.286;2023-07-29T06:42:45;4.43;;;2.25;;
31730;SDS011;18310;55.586;12.286;2023-07-29T06:45:48;5.07;;;2.30;;
31730;SDS011;18310;55.586;12.286;2023-07-29T06:48:51;6.77;;;2.40;;
31730;SDS011;18310;55.586;12.286;2023-07-29T06:51:54;3.90;;;2.40;;
31730;SDS011;18310;55.586;12.286;2023-07-29T06:54:59;5.60;;;2.72;;
31730;SDS011;18310;55.586;12.286;2023-07-29T06:58:02;4.00;;;2.28;;
31730;SDS011;18310;55.586;12.286;2023-07-29T07:01:05;4.90;;;2.50;;
31730;SDS011;18310;55.586;12.286;2023-07-29T07:04:08;9.00;;;2.33;;
31730;SDS011;18310;55.586;12.286;2023-07-29T07:07:12;4.45;;;2.33;;
31730;SDS011;18310;55.586;12.286;2023-07-29T07:10:16;4.63;;;2.55;;
31730;SDS011;18310;55.586;12.286;2023-07-29T07:13:19;4.28;;;2.30;;
31730;SDS011;18310;55.586;12.286;2023-07-29T07:16:23;3.45;;;2.45;;
31730;SDS011;18310;55.586;12.286;2023-07-29T07:19:26;4.55;;;2.67;;
31730;SDS011;18310;55.586;12.286;2023-07-29T07:22:29;6.38;;;2.63;;
31730;SDS011;18310;55.586;12.286;2023-07-29T07:25:34;4.95;;;2.40;;
31730;SDS011;18310;55.586;12.286;2023-07-29T07:28:37;5.18;;;2.42;;
31730;SDS011;18310;55.586;12.286;2023-07-29T07:31:40;4.70;;;2.40;;
31730;SDS011;18310;55.586;12.286;2023-07-29T07:34:43;3.72;;;2.15;;
31730;SDS011;18310;55.586;12.286;2023-07-29T07:37:46;4.07;;;2.47;;
31730;SDS011;18310;55.586;12.286;2023-07-29T07:40:54;5.50;;;2.67;;
31730;SDS011;18310;55.586;12.286;2023-07-29T07:43:58;4.57;;;2.33;;
31730;SDS011;18310;55.586;12.286;2023-07-29T07:47:02;4.80;;;2.20;;
31730;SDS011;18310;55.586;12.286;2023-07-29T07:50:06;9.50;;;2.33;;
31730;SDS011;18310;55.586;12.286;2023-07-29T07:53:09;4.80;;;2.28;;
31730;SDS011;18310;55.586;12.286;2023-07-29T07:56:14;3.20;;;2.10;;
31730;SDS011;18310;55.586;12.286;2023-07-29T07:59:18;3.53;;;2.22;;
31730;SDS011;18310;55.586;12.286;2023-07-29T08:02:21;7.63;;;2.60;;
31730;SDS011;18310;55.586;12.286;2023-07-29T08:05:24;5.72;;;2.50;;
31730;SDS011;18310;55.586;12.286;2023-07-29T08:08:28;15.27;;;2.27;;
31730;SDS011;18310;55.586;12.286;2023-07-29T08:11:32;4.00;;;2.10;;
31730;SDS011;18310;55.586;12.286;2023-07-29T08:14:36;6.03;;;2.20;;
31730;SDS011;18310;55.586;12.286;2023-07-29T08:17:39;4.63;;;2.15;;
31730;SDS011;18310;55.586;12.286;2023-07-29T08:20:50;3.57;;;2.40;;
31730;SDS011;18310;55.586;12.286;2023-07-29T08:23:54;4.30;;;2.38;;
31730;SDS011;18310;55.586;12.286;2023-07-29T08:26:59;3.10;;;1.95;;
31730;SDS011;18310;55.586;12.286;2023-07-29T08:30:03;3.22;;;2.15;;
31730;SDS011;18310;55.586;12.286;2023-07-29T08:36:09;3.58;;;1.90;;
31730;SDS011;18310;55.586;12.286;2023-07-29T08:39:13;3.58;;;1.77;;
31730;SDS011;18310;55.586;12.286;2023-07-29T08:42:18;3.05;;;1.85;;
31730;SDS011;18310;55.586;12.286;2023-07-29T08:45:22;4.28;;;1.60;;
31730;SDS011;18310;55.586;12.286;2023-07-29T08:48:29;3.20;;;1.33;;
31730;SDS011;18310;55.586;12.286;2023-07-29T08:51:35;2.38;;;1.60;;
31730;SDS011;18310;55.586;12.286;2023-07-29T08:54:39;4.72;;;1.60;;
31730;SDS011;18310;55.586;12.286;2023-07-29T08:57:44;3.33;;;1.50;;
31730;SDS011;18310;55.586;12.286;2023-07-29T09:00:48;2.55;;;1.45;;
31730;SDS011;18310;55.586;12.286;2023-07-29T09:03:52;2.83;;;1.83;;
31730;SDS011;18310;55.586;12.286;2023-07-29T09:06:56;5.50;;;1.33;;
31730;SDS011;18310;55.586;12.286;2023-07-29T09:10:00;2.97;;;1.63;;
31730;SDS011;18310;55.586;12.286;2023-07-29T09:13:06;3.30;;;1.48;;
31730;SDS011;18310;55.586;12.286;2023-07-29T09:16:10;5.05;;;1.80;;
31730;SDS011;18310;55.586;12.286;2023-07-29T09:22:26;3.97;;;2.13;;
31730;SDS011;18310;55.586;12.286;2023-07-29T09:25:30;2.75;;;1.60;;
31730;SDS011;18310;55.586;12.286;2023-07-29T09:28:33;2.42;;;1.50;;
31730;SDS011;18310;55.586;12.286;2023-07-29T09:31:37;2.08;;;1.15;;
31730;SDS011;18310;55.586;12.286;2023-07-29T09:34:41;4.60;;;1.27;;
31730;SDS011;18310;55.586;12.286;2023-07-29T09:37:46;1.30;;;0.77;;
31730;SDS011;18310;55.586;12.286;2023-07-29T09:43:59;2.70;;;0.93;;
31730;SDS011;18310;55.586;12.286;2023-07-29T09:47:04;2.28;;;0.93;;
31730;SDS011;18310;55.586;12.286;2023-07-29T09:50:07;1.67;;;0.90;;
31730;SDS011;18310;55.586;12.286;2023-07-29T09:53:12;1.65;;;0.90;;
31730;SDS011;18310;55.586;12.286;2023-07-29T09:56:15;2.00;;;1.03;;
31730;SDS011;18310;55.586;12.286;2023-07-29T09:59:20;1.60;;;0.70;;
31730;SDS011;18310;55.586;12.286;2023-07-29T10:02:25;2.35;;;0.80;;
31730;SDS011;18310;55.586;12.286;2023-07-29T10:05:30;1.50;;;0.90;;
31730;SDS011;18310;55.586;12.286;2023-07-29T10:08:33;2.40;;;1.00;;
31730;SDS011;18310;55.586;12.286;2023-07-29T10:11:40;3.67;;;1.05;;
31730;SDS011;18310;55.586;12.286;2023-07-29T10:14:46;4.28;;;1.10;;
31730;SDS011;18310;55.586;12.286;2023-07-29T10:17:50;1.80;;;0.90;;
31730;SDS011;18310;55.586;12.286;2023-07-29T10:20:54;1.63;;;1.00;;
31730;SDS011;18310;55.586;12.286;2023-07-29T10:24:29;3.60;;;0.82;;
31730;SDS011;18310;55.586;12.286;2023-07-29T10:27:35;1.88;;;1.10;;
31730;SDS011;18310;55.586;12.286;2023-07-29T10:30:44;2.30;;;1.20;;
31730;SDS011;18310;55.586;12.286;2023-07-29T10:33:48;2.30;;;1.00;;
31730;SDS011;18310;55.586;12.286;2023-07-29T10:36:52;1.75;;;0.73;;
31730;SDS011;18310;55.586;12.286;2023-07-29T10:39:57;2.10;;;1.10;;
31730;SDS011;18310;55.586;12.286;2023-07-29T10:43:01;1.40;;;0.90;;
31730;SDS011;18310;55.586;12.286;2023-07-29T10:46:15;2.35;;;1.00;;
31730;SDS011;18310;55.586;12.286;2023-07-29T10:49:20;1.97;;;0.90;;
31730;SDS011;18310;55.586;12.286;2023-07-29T10:52:29;1.60;;;1.00;;
31730;SDS011;18310;55.586;12.286;2023-07-29T10:58:46;2.20;;;1.20;;
31730;SDS011;18310;55.586;12.286;2023-07-29T11:01:50;3.90;;;0.80;;
31730;SDS011;18310;55.586;12.286;2023-07-29T11:04:56;2.88;;;1.30;;
31730;SDS011;18310;55.586;12.286;2023-07-29T11:08:00;3.88;;;0.98;;
31730;SDS011;18310;55.586;12.286;2023-07-29T11:11:21;1.77;;;1.02;;
31730;SDS011;18310;55.586;12.286;2023-07-29T11:14:24;2.20;;;1.00;;
31730;SDS011;18310;55.586;12.286;2023-07-29T11:17:27;1.48;;;0.80;;
31730;SDS011;18310;55.586;12.286;2023-07-29T11:20:32;3.45;;;1.30;;
31730;SDS011;18310;55.586;12.286;2023-07-29T11:23:36;2.08;;;1.27;;
31730;SDS011;18310;55.586;12.286;2023-07-29T11:26:47;2.70;;;1.13;;
31730;SDS011;18310;55.586;12.286;2023-07-29T11:29:50;2.50;;;1.20;;
31730;SDS011;18310;55.586;12.286;2023-07-29T11:32:54;2.60;;;1.20;;
31730;SDS011;18310;55.586;12.286;2023-07-29T11:35:57;3.80;;;1.27;;
31730;SDS011;18310;55.586;12.286;2023-07-29T11:39:08;2.00;;;1.10;;
31730;SDS011;18310;55.586;12.286;2023-07-29T11:42:14;2.58;;;1.25;;
31730;SDS011;18310;55.586;12.286;2023-07-29T11:45:18;3.80;;;1.70;;
31730;SDS011;18310;55.586;12.286;2023-07-29T11:48:28;3.08;;;1.45;;
31730;SDS011;18310;55.586;12.286;2023-07-29T11:51:31;3.00;;;1.30;;
31730;SDS011;18310;55.586;12.286;2023-07-29T11:54:35;2.93;;;1.43;;
31730;SDS011;18310;55.586;12.286;2023-07-29T11:57:40;2.38;;;1.27;;
31730;SDS011;18310;55.586;12.286;2023-07-29T12:00:44;3.97;;;1.27;;
31730;SDS011;18310;55.586;12.286;2023-07-29T12:03:48;2.80;;;1.20;;
31730;SDS011;18310;55.586;12.286;2023-07-29T12:07:16;3.83;;;1.50;;
31730;SDS011;18310;55.586;12.286;2023-07-29T12:10:20;2.58;;;1.10;;
31730;SDS011;18310;55.586;12.286;2023-07-29T12:13:24;2.90;;;1.85;;
31730;SDS011;18310;55.586;12.286;2023-07-29T12:19:37;3.90;;;1.73;;
31730;SDS011;18310;55.586;12.286;2023-07-29T12:25:57;16.05;;;1.95;;
31730;SDS011;18310;55.586;12.286;2023-07-29T12:29:10;4.10;;;2.05;;
31730;SDS011;18310;55.586;12.286;2023-07-29T12:32:14;3.03;;;1.60;;
31730;SDS011;18310;55.586;12.286;2023-07-29T12:35:17;4.20;;;1.67;;
31730;SDS011;18310;55.586;12.286;2023-07-29T12:41:25;3.38;;;1.52;;
31730;SDS011;18310;55.586;12.286;2023-07-29T12:44:29;4.00;;;1.30;;
31730;SDS011;18310;55.586;12.286;2023-07-29T12:47:34;2.80;;;1.73;;
31730;SDS011;18310;55.586;12.286;2023-07-29T12:50:37;3.25;;;1.23;;
31730;SDS011;18310;55.586;12.286;2023-07-29T12:53:40;8.23;;;1.98;;
31730;SDS011;18310;55.586;12.286;2023-07-29T12:56:47;3.50;;;1.95;;
31730;SDS011;18310;55.586;12.286;2023-07-29T12:59:50;5.57;;;1.88;;
31730;SDS011;18310;55.586;12.286;2023-07-29T13:02:54;3.35;;;2.03;;
31730;SDS011;18310;55.586;12.286;2023-07-29T13:05:57;7.30;;;2.30;;
31730;SDS011;18310;55.586;12.286;2023-07-29T13:09:00;3.58;;;1.83;;
31730;SDS011;18310;55.586;12.286;2023-07-29T13:12:06;4.30;;;1.88;;
31730;SDS011;18310;55.586;12.286;2023-07-29T13:15:12;8.27;;;2.10;;
31730;SDS011;18310;55.586;12.286;2023-07-29T13:18:15;6.77;;;1.97;;
31730;SDS011;18310;55.586;12.286;2023-07-29T13:21:18;3.77;;;1.80;;
31730;SDS011;18310;55.586;12.286;2023-07-29T13:24:21;3.08;;;1.80;;
31730;SDS011;18310;55.586;12.286;2023-07-29T13:28:03;8.23;;;2.22;;
31730;SDS011;18310;55.586;12.286;2023-07-29T13:31:06;17.00;;;6.25;;
31730;SDS011;18310;55.586;12.286;2023-07-29T13:34:10;14.68;;;6.82;;
31730;SDS011;18310;55.586;12.286;2023-07-29T13:37:13;8.10;;;3.63;;
31730;SDS011;18310;55.586;12.286;2023-07-29T13:40:16;5.28;;;1.98;;
31730;SDS011;18310;55.586;12.286;2023-07-29T13:43:21;2.97;;;1.73;;
31730;SDS011;18310;55.586;12.286;2023-07-29T13:46:24;4.80;;;1.83;;
31730;SDS011;18310;55.586;12.286;2023-07-29T13:49:27;3.47;;;1.60;;
31730;SDS011;18310;55.586;12.286;2023-07-29T13:52:30;9.27;;;2.70;;
31730;SDS011;18310;55.586;12.286;2023-07-29T13:55:33;3.60;;;1.70;;
31730;SDS011;18310;55.586;12.286;2023-07-29T13:58:37;2.90;;;1.63;;
31730;SDS011;18310;55.586;12.286;2023-07-29T14:01:41;3.60;;;2.35;;
31730;SDS011;18310;55.586;12.286;2023-07-29T14:04:44;3.13;;;2.23;;
31730;SDS011;18310;55.586;12.286;2023-07-29T14:07:47;6.40;;;2.70;;
31730;SDS011;18310;55.586;12.286;2023-07-29T14:10:50;3.53;;;2.07;;
31730;SDS011;18310;55.586;12.286;2023-07-29T14:13:54;6.30;;;3.87;;
31730;SDS011;18310;55.586;12.286;2023-07-29T14:16:57;6.20;;;2.70;;
31730;SDS011;18310;55.586;12.286;2023-07-29T14:20:00;4.13;;;2.80;;
31730;SDS011;18310;55.586;12.286;2023-07-29T14:23:04;4.20;;;2.78;;
31730;SDS011;18310;55.586;12.286;2023-07-29T14:26:08;4.95;;;2.85;;
31730;SDS011;18310;55.586;12.286;2023-07-29T14:29:12;5.43;;;2.88;;
31730;SDS011;18310;55.586;12.286;2023-07-29T14:32:15;6.20;;;3.13;;
31730;SDS011;18310;55.586;12.286;2023-07-29T14:35:21;5.85;;;3.10;;
31730;SDS011;18310;55.586;12.286;2023-07-29T14:38:24;6.87;;;3.40;;
31730;SDS011;18310;55.586;12.286;2023-07-29T14:41:28;15.40;;;5.03;;
31730;SDS011;18310;55.586;12.286;2023-07-29T14:44:33;8.73;;;3.58;;
31730;SDS011;18310;55.586;12.286;2023-07-29T14:47:36;4.05;;;2.70;;
31730;SDS011;18310;55.586;12.286;2023-07-29T14:50:39;6.35;;;2.88;;
31730;SDS011;18310;55.586;12.286;2023-07-29T14:53:42;5.03;;;2.55;;
31730;SDS011;18310;55.586;12.286;2023-07-29T14:56:46;4.22;;;3.08;;
31730;SDS011;18310;55.586;12.286;2023-07-29T14:59:50;4.40;;;2.87;;
31730;SDS011;18310;55.586;12.286;2023-07-29T15:02:54;6.82;;;3.38;;
31730;SDS011;18310;55.586;12.286;2023-07-29T15:05:57;5.07;;;3.40;;
31730;SDS011;18310;55.586;12.286;2023-07-29T15:09:02;6.15;;;3.08;;
31730;SDS011;18310;55.586;12.286;2023-07-29T15:12:05;6.93;;;3.33;;
31730;SDS011;18310;55.586;12.286;2023-07-29T15:15:11;7.13;;;3.30;;
31730;SDS011;18310;55.586;12.286;2023-07-29T15:18:14;6.20;;;3.63;;
31730;SDS011;18310;55.586;12.286;2023-07-29T15:21:18;7.17;;;4.27;;
31730;SDS011;18310;55.586;12.286;2023-07-29T15:24:21;14.37;;;3.60;;
31730;SDS011;18310;55.586;12.286;2023-07-29T15:27:24;4.27;;;2.53;;
31730;SDS011;18310;55.586;12.286;2023-07-29T15:30:28;3.60;;;1.90;;
31730;SDS011;18310;55.586;12.286;2023-07-29T15:33:31;3.88;;;2.33;;
31730;SDS011;18310;55.586;12.286;2023-07-29T15:36:37;2.95;;;1.83;;
31730;SDS011;18310;55.586;12.286;2023-07-29T15:39:41;3.92;;;1.33;;
31730;SDS011;18310;55.586;12.286;2023-07-29T15:42:44;7.03;;;2.00;;
31730;SDS011;18310;55.586;12.286;2023-07-29T15:45:48;4.15;;;1.90;;
31730;SDS011;18310;55.586;12.286;2023-07-29T15:48:51;3.42;;;1.90;;
31730;SDS011;18310;55.586;12.286;2023-07-29T15:51:57;4.88;;;1.92;;
31730;SDS011;18310;55.586;12.286;2023-07-29T15:55:00;2.80;;;1.80;;
31730;SDS011;18310;55.586;12.286;2023-07-29T16:04:12;2.75;;;1.70;;
31730;SDS011;18310;55.586;12.286;2023-07-29T16:07:15;7.03;;;2.17;;
31730;SDS011;18310;55.586;12.286;2023-07-29T16:10:19;4.63;;;2.20;;
31730;SDS011;18310;55.586;12.286;2023-07-29T16:13:22;4.18;;;2.53;;
31730;SDS011;18310;55.586;12.286;2023-07-29T16:16:27;3.58;;;2.30;;
31730;SDS011;18310;55.586;12.286;2023-07-29T16:19:30;3.60;;;2.13;;
31730;SDS011;18310;55.586;12.286;2023-07-29T16:22:33;6.27;;;1.87;;
31730;SDS011;18310;55.586;12.286;2023-07-29T16:25:36;14.40;;;4.15;;
31730;SDS011;18310;55.586;12.286;2023-07-29T16:28:40;6.25;;;3.78;;
31730;SDS011;18310;55.586;12.286;2023-07-29T16:31:46;4.13;;;3.13;;
31730;SDS011;18310;55.586;12.286;2023-07-29T16:34:53;4.93;;;2.80;;
31730;SDS011;18310;55.586;12.286;2023-07-29T16:37:57;7.30;;;2.13;;
31730;SDS011;18310;55.586;12.286;2023-07-29T16:41:02;3.33;;;1.67;;
31730;SDS011;18310;55.586;12.286;2023-07-29T16:44:25;10.55;;;3.67;;
31730;SDS011;18310;55.586;12.286;2023-07-29T16:47:29;7.22;;;3.83;;
31730;SDS011;18310;55.586;12.286;2023-07-29T16:50:33;6.43;;;3.38;;
31730;SDS011;18310;55.586;12.286;2023-07-29T16:53:37;4.13;;;2.47;;
31730;SDS011;18310;55.586;12.286;2023-07-29T16:59:43;12.18;;;4.68;;
31730;SDS011;18310;55.586;12.286;2023-07-29T17:02:48;12.27;;;5.43;;
31730;SDS011;18310;55.586;12.286;2023-07-29T17:05:51;7.07;;;3.20;;
31730;SDS011;18310;55.586;12.286;2023-07-29T17:08:56;7.82;;;2.53;;
31730;SDS011;18310;55.586;12.286;2023-07-29T17:12:00;7.50;;;2.45;;
31730;SDS011;18310;55.586;12.286;2023-07-29T17:15:04;9.75;;;4.68;;
31730;SDS011;18310;55.586;12.286;2023-07-29T17:18:11;10.90;;;5.00;;
31730;SDS011;18310;55.586;12.286;2023-07-29T17:21:14;10.00;;;5.82;;
31730;SDS011;18310;55.586;12.286;2023-07-29T17:24:17;6.97;;;3.60;;
31730;SDS011;18310;55.586;12.286;2023-07-29T17:27:20;4.13;;;2.17;;
31730;SDS011;18310;55.586;12.286;2023-07-29T17:30:23;4.67;;;2.10;;
31730;SDS011;18310;55.586;12.286;2023-07-29T17:33:30;4.55;;;2.10;;
31730;SDS011;18310;55.586;12.286;2023-07-29T17:36:34;6.25;;;2.08;;
31730;SDS011;18310;55.586;12.286;2023-07-29T17:39:39;5.40;;;1.88;;
31730;SDS011;18310;55.586;12.286;2023-07-29T17:42:43;52.63;;;10.90;;
31730;SDS011;18310;55.586;12.286;2023-07-29T17:45:46;23.38;;;8.25;;
31730;SDS011;18310;55.586;12.286;2023-07-29T17:48:50;25.65;;;11.73;;
31730;SDS011;18310;55.586;12.286;2023-07-29T17:51:53;18.25;;;8.57;;
31730;SDS011;18310;55.586;12.286;2023-07-29T17:54:58;4.80;;;2.90;;
31730;SDS011;18310;55.586;12.286;2023-07-29T17:58:01;16.40;;;3.50;;
31730;SDS011;18310;55.586;12.286;2023-07-29T18:01:04;14.88;;;2.17;;
31730;SDS011;18310;55.586;12.286;2023-07-29T18:04:09;9.27;;;2.08;;
31730;SDS011;18310;55.586;12.286;2023-07-29T18:07:12;8.30;;;2.05;;
31730;SDS011;18310;55.586;12.286;2023-07-29T18:10:18;24.48;;;3.40;;
31730;SDS011;18310;55.586;12.286;2023-07-29T18:13:21;28.23;;;2.03;;
31730;SDS011;18310;55.586;12.286;2023-07-29T18:16:26;16.60;;;3.15;;
31730;SDS011;18310;55.586;12.286;2023-07-29T18:19:31;82.20;;;19.48;;
31730;SDS011;18310;55.586;12.286;2023-07-29T18:22:34;48.03;;;13.05;;
31730;SDS011;18310;55.586;12.286;2023-07-29T18:25:37;30.17;;;6.45;;
31730;SDS011;18310;55.586;12.286;2023-07-29T18:29:49;17.52;;;4.50;;
31730;SDS011;18310;55.586;12.286;2023-07-29T18:32:52;11.48;;;3.63;;
31730;SDS011;18310;55.586;12.286;2023-07-29T18:35:55;4.85;;;2.47;;
31730;SDS011;18310;55.586;12.286;2023-07-29T18:38:58;3.13;;;2.07;;
31730;SDS011;18310;55.586;12.286;2023-07-29T18:42:01;11.15;;;3.03;;
31730;SDS011;18310;55.586;12.286;2023-07-29T18:46:58;8.20;;;2.75;;
31730;SDS011;18310;55.586;12.286;2023-07-29T18:50:01;6.40;;;2.17;;
31730;SDS011;18310;55.586;12.286;2023-07-29T18:53:05;13.00;;;6.55;;
31730;SDS011;18310;55.586;12.286;2023-07-29T18:56:08;17.60;;;9.70;;
31730;SDS011;18310;55.586;12.286;2023-07-29T18:59:11;17.10;;;8.67;;